Alvy, West Virginia
Current Conditions -  °F | °C
As of 4:53 PM on Sunday 25 Jan 2015 (Local Time) from KCKB Reporting Station
Overcast Overcast  
Wind Chill: 39°   Ceiling: 5500
Heat Index: 39°   Visibility: 9mi
Dew Point: 36°   Wind: 3mph
Humidity: 89%   Direction: 50°NE
Pressure: 29.74"   Gusts: NA
Location:  39.5266°N, 80.6428°W
Report Text: KCKB 252153Z 05003KT 9SM BKN055 OVC075 04/02 A2974 RMK AO2 RAE32 SLP074 P0000 T00390022
Loading
Personal Weather Stations






























Interactive Weather Map New forecast layout! Learn more

10-Day Weather Forecast

Advertisements
Track Severe Weather on mobile